createdAt,value
2023-10-10T00:00:08.344Z,62.11
2023-10-10T00:01:14.098Z,62.21
2023-10-10T00:02:20.368Z,61.96
2023-10-10T00:03:26.416Z,62.18
2023-10-10T00:04:31.989Z,62.23
2023-10-10T00:05:37.891Z,62.27
2023-10-10T00:06:43.727Z,62.29
2023-10-10T00:07:49.427Z,62.02
2023-10-10T00:08:54.948Z,61.86
2023-10-10T00:10:00.524Z,62.18
2023-10-10T00:11:06.164Z,61.79
2023-10-10T00:12:11.807Z,62.03
2023-10-10T00:13:17.437Z,62.05
2023-10-10T00:14:23.365Z,62.28
2023-10-10T00:15:28.995Z,62.19
2023-10-10T00:16:34.527Z,62.05
2023-10-10T00:17:40.261Z,61.74
2023-10-10T00:18:45.796Z,62.14
2023-10-10T00:19:51.440Z,61.83
2023-10-10T00:20:57.025Z,62.16
2023-10-10T00:22:02.634Z,62.14
2023-10-10T00:23:08.215Z,62.18
2023-10-10T00:24:13.814Z,62.2
2023-10-10T00:25:19.370Z,62.23
2023-10-10T00:26:25.130Z,62.28
2023-10-10T00:27:30.673Z,62.21
2023-10-10T00:28:36.178Z,62.27
2023-10-10T00:29:41.892Z,62.28
2023-10-10T00:30:47.774Z,61.66
2023-10-10T00:31:53.393Z,62.2
2023-10-10T00:32:59.050Z,61.63
2023-10-10T00:34:04.596Z,61.99
2023-10-10T00:35:10.366Z,62.22
2023-10-10T00:36:16.404Z,62.12
2023-10-10T00:37:21.945Z,61.59
2023-10-10T00:38:27.781Z,61.86
2023-10-10T00:39:33.330Z,61.99
2023-10-10T00:40:38.910Z,62.24
2023-10-10T00:41:44.455Z,62.22
2023-10-10T00:42:49.975Z,62.3
2023-10-10T00:43:55.635Z,62.37
2023-10-10T00:45:01.198Z,62.35
2023-10-10T00:46:06.736Z,62.28
2023-10-10T00:47:12.500Z,62.36
2023-10-10T00:48:18.473Z,61.99
2023-10-10T00:49:24.126Z,62.35
2023-10-10T00:50:30.035Z,62.59
2023-10-10T00:51:35.702Z,62.34
2023-10-10T00:52:41.249Z,62.4
2023-10-10T00:53:46.785Z,62.38
2023-10-10T00:54:52.317Z,62.2
2023-10-10T00:55:58.032Z,62.05
2023-10-10T00:57:03.774Z,62.4
2023-10-10T00:58:09.463Z,61.94
2023-10-10T00:59:15.805Z,61.89
2023-10-10T01:00:21.522Z,62.54
2023-10-10T01:01:27.156Z,62.49
2023-10-10T01:02:33.114Z,62.39
2023-10-10T01:03:39.189Z,62.58
2023-10-10T01:04:44.901Z,62.5
2023-10-10T01:05:50.592Z,62.55
2023-10-10T01:06:56.145Z,62.27
2023-10-10T01:08:02.015Z,62.24
2023-10-10T01:09:07.541Z,62.39
2023-10-10T01:10:13.090Z,62.24
2023-10-10T01:11:18.795Z,62.43
2023-10-10T01:12:24.318Z,62.43
2023-10-10T01:13:29.844Z,62.5
2023-10-10T01:14:35.692Z,62.59
2023-10-10T01:15:41.308Z,62.28
2023-10-10T01:16:46.982Z,62.38
2023-10-10T01:17:52.730Z,62.32
2023-10-10T01:18:58.323Z,62.57
2023-10-10T01:20:04.028Z,62.51
2023-10-10T01:21:09.572Z,62.36
2023-10-10T01:22:15.100Z,62.37
2023-10-10T01:23:20.796Z,62.56
2023-10-10T01:24:26.310Z,62.16
2023-10-10T01:25:31.846Z,62.05
2023-10-10T01:26:37.467Z,62.16
2023-10-10T01:27:42.975Z,62.39
2023-10-10T01:28:48.490Z,62.63
2023-10-10T01:29:54.021Z,62.64
2023-10-10T01:31:00.436Z,62.07
2023-10-10T01:32:06.150Z,62.49
2023-10-10T01:33:11.817Z,62.49
2023-10-10T01:34:17.442Z,62.67
2023-10-10T01:35:23.144Z,62.58
2023-10-10T01:36:28.818Z,62.82
2023-10-10T01:37:34.325Z,62.97
2023-10-10T01:38:39.846Z,62.77
2023-10-10T01:39:45.394Z,62.9
2023-10-10T01:40:50.928Z,62.93
2023-10-10T01:41:56.689Z,63.03
2023-10-10T01:43:02.401Z,62.76
2023-10-10T01:44:08.244Z,62.99
2023-10-10T01:45:14.171Z,62.96
2023-10-10T01:46:19.918Z,62.86
2023-10-10T01:47:25.669Z,62.96
2023-10-10T01:48:31.217Z,63.01
2023-10-10T01:49:37.794Z,62.95
2023-10-10T01:50:43.457Z,63.08
2023-10-10T01:51:48.970Z,62.98
2023-10-10T01:52:54.538Z,63.11
2023-10-10T01:54:00.084Z,63.12
2023-10-10T01:55:05.619Z,63.17
2023-10-10T01:56:11.288Z,63.23
2023-10-10T01:57:16.918Z,63.28
2023-10-10T01:58:22.459Z,63.33
2023-10-10T01:59:28.531Z,63.34
2023-10-10T02:00:34.286Z,63.52
2023-10-10T02:01:39.978Z,63.18
2023-10-10T02:02:46.022Z,63.37
2023-10-10T02:03:52.263Z,63.42
2023-10-10T02:04:57.991Z,63.28
2023-10-10T02:06:03.632Z,63.24
2023-10-10T02:07:09.128Z,63.38
2023-10-10T02:08:14.824Z,63.43
2023-10-10T02:09:20.504Z,63.48
2023-10-10T02:10:26.081Z,63.37
2023-10-10T02:11:31.666Z,63.24
2023-10-10T02:12:37.270Z,63.22
2023-10-10T02:13:42.962Z,63.24
2023-10-10T02:14:48.517Z,63.25
2023-10-10T02:15:54.129Z,63.46
2023-10-10T02:17:02.338Z,63.27
2023-10-10T02:18:08.093Z,63.39
2023-10-10T02:19:16.205Z,63.25
2023-10-10T02:20:21.970Z,63.37
2023-10-10T02:21:27.522Z,63.25
2023-10-10T02:22:33.065Z,62.86
2023-10-10T02:23:38.810Z,62.95
2023-10-10T02:24:44.358Z,63.29
2023-10-10T02:25:50.018Z,63.25
2023-10-10T02:26:55.762Z,62.9
2023-10-10T02:28:02.285Z,63.28
2023-10-10T02:29:07.921Z,63.24
2023-10-10T02:30:13.499Z,63.12
2023-10-10T02:31:19.249Z,63.04
2023-10-10T02:32:24.990Z,63.16
2023-10-10T02:33:30.523Z,62.79
2023-10-10T02:34:36.043Z,63.12
2023-10-10T02:35:41.636Z,63.01
2023-10-10T02:36:47.133Z,62.98
2023-10-10T02:37:52.802Z,63.19
2023-10-10T02:38:58.368Z,63.09
2023-10-10T02:40:04.004Z,63.19
2023-10-10T02:41:09.695Z,63.12
2023-10-10T02:42:15.260Z,63.25
2023-10-10T02:43:20.795Z,63.16
2023-10-10T02:44:26.438Z,63.29
2023-10-10T02:45:31.992Z,62.79
2023-10-10T02:46:37.981Z,63.09
2023-10-10T02:47:43.916Z,63.31
2023-10-10T02:48:49.536Z,63.08
2023-10-10T02:49:57.823Z,62.83
2023-10-10T02:51:03.535Z,63.41
2023-10-10T02:52:09.399Z,63.43
2023-10-10T02:53:15.075Z,63.39
2023-10-10T02:54:20.646Z,63.38
2023-10-10T02:55:26.246Z,63.54
2023-10-10T02:56:31.922Z,63.55
2023-10-10T02:57:37.519Z,63.59
2023-10-10T02:58:43.038Z,63.17
2023-10-10T02:59:48.608Z,63.52
2023-10-10T03:00:54.181Z,63.44
2023-10-10T03:02:00.270Z,63.46
2023-10-10T03:03:06.469Z,63.51
2023-10-10T03:04:12.514Z,63.42
2023-10-10T03:05:18.649Z,63.44
2023-10-10T03:06:24.191Z,63.36
2023-10-10T03:07:29.742Z,63.44
2023-10-10T03:08:35.407Z,63.44
2023-10-10T03:09:40.977Z,63.35
2023-10-10T03:10:46.511Z,63.31
2023-10-10T03:11:52.027Z,63.39
2023-10-10T03:12:57.742Z,63.42
2023-10-10T03:14:03.374Z,63.33
2023-10-10T03:15:08.890Z,63.45
2023-10-10T03:16:14.563Z,63.35
2023-10-10T03:17:20.171Z,63.35
2023-10-10T03:18:25.732Z,63.42
2023-10-10T03:19:31.366Z,63.46
2023-10-10T03:20:37.114Z,63.53
2023-10-10T03:21:42.687Z,62.94
2023-10-10T03:22:48.282Z,63.57
2023-10-10T03:23:53.817Z,63.44
2023-10-10T03:24:59.368Z,63.35
2023-10-10T03:26:04.960Z,63.42
2023-10-10T03:27:10.554Z,63.36
2023-10-10T03:28:16.109Z,63.23
2023-10-10T03:29:21.730Z,63.34
2023-10-10T03:30:27.382Z,63.46
2023-10-10T03:31:33.023Z,63.49
2023-10-10T03:32:38.846Z,63.49
2023-10-10T03:33:44.495Z,63.38
2023-10-10T03:34:50.113Z,63.35
2023-10-10T03:35:55.623Z,63.5
2023-10-10T03:37:01.183Z,63.42
2023-10-10T03:38:06.860Z,63.44
2023-10-10T03:39:12.453Z,63.44
2023-10-10T03:40:17.963Z,63.26
2023-10-10T03:41:24.077Z,63.35
2023-10-10T03:42:29.680Z,63.06
2023-10-10T03:43:35.188Z,63.38
2023-10-10T03:44:41.030Z,63.34
2023-10-10T03:45:46.739Z,63.26
2023-10-10T03:46:52.286Z,63.43
2023-10-10T03:47:57.953Z,63.36
2023-10-10T03:49:03.564Z,63.21
2023-10-10T03:50:15.248Z,63.19
2023-10-10T03:51:20.902Z,63
2023-10-10T03:52:26.431Z,63.31
2023-10-10T03:53:32.136Z,63.35
2023-10-10T03:54:37.681Z,62.96
2023-10-10T03:55:43.408Z,63.25
2023-10-10T03:56:49.239Z,63.64
2023-10-10T03:57:54.760Z,62.74
2023-10-10T03:59:00.515Z,63.07
2023-10-10T04:00:06.532Z,63.1
2023-10-10T04:01:12.193Z,62.79
2023-10-10T04:02:19.017Z,61.23
2023-10-10T04:03:24.843Z,61.24
2023-10-10T04:04:30.474Z,59.92
2023-10-10T04:05:36.314Z,58.58
2023-10-10T04:06:41.925Z,58.75
2023-10-10T04:07:47.536Z,58.15
2023-10-10T04:08:53.048Z,58.26
2023-10-10T04:09:58.564Z,58.66
2023-10-10T04:11:04.180Z,58.36
2023-10-10T04:12:09.787Z,58.22
2023-10-10T04:13:15.287Z,58.23
2023-10-10T04:14:21.338Z,58.13
2023-10-10T04:15:26.920Z,57.85
2023-10-10T04:16:32.697Z,57.55
2023-10-10T04:17:38.595Z,57.56
2023-10-10T04:18:44.353Z,57.49
2023-10-10T04:19:49.886Z,57.42
2023-10-10T04:20:55.415Z,57.41
2023-10-10T04:22:00.947Z,57.31
2023-10-10T04:23:06.595Z,57.12
2023-10-10T04:24:12.116Z,57.18
2023-10-10T04:25:17.650Z,57.16
2023-10-10T04:26:23.394Z,57.03
2023-10-10T04:27:28.976Z,57.06
2023-10-10T04:28:35.560Z,57.05
2023-10-10T04:29:41.259Z,57
2023-10-10T04:30:46.888Z,56.94
2023-10-10T04:31:52.578Z,56.89
2023-10-10T04:32:58.503Z,56.96
2023-10-10T04:34:04.083Z,56.97
2023-10-10T04:35:09.768Z,57.01
2023-10-10T04:36:15.300Z,57.02
2023-10-10T04:37:20.804Z,56.96
2023-10-10T04:38:26.495Z,57.05
2023-10-10T04:39:32.068Z,57.05
2023-10-10T04:40:37.729Z,56.99
2023-10-10T04:41:43.421Z,57.01
2023-10-10T04:42:48.969Z,57.02
2023-10-10T04:43:57.485Z,57.07
2023-10-10T04:45:03.062Z,57.12
2023-10-10T04:46:08.762Z,57.09
2023-10-10T04:47:14.455Z,57.11
2023-10-10T04:48:20.180Z,57.11
2023-10-10T04:49:25.767Z,57.05
2023-10-10T04:50:31.540Z,57.02
2023-10-10T04:51:40.516Z,57
2023-10-10T04:52:46.072Z,56.84
2023-10-10T04:53:51.862Z,56.85
2023-10-10T04:54:57.352Z,56.91
2023-10-10T04:56:03.014Z,56.83
2023-10-10T04:57:11.647Z,56.79
2023-10-10T04:58:17.393Z,56.77
2023-10-10T04:59:23.008Z,56.8
2023-10-10T05:00:28.596Z,56.76
2023-10-10T05:01:34.256Z,56.81
2023-10-10T05:02:40.113Z,56.83
2023-10-10T05:03:46.349Z,56.82
2023-10-10T05:04:51.971Z,56.75
2023-10-10T05:05:57.508Z,56.8
2023-10-10T05:07:02.999Z,56.83
2023-10-10T05:08:08.820Z,56.79
2023-10-10T05:09:14.417Z,56.82
2023-10-10T05:10:19.980Z,56.81
2023-10-10T05:11:25.623Z,56.86
2023-10-10T05:12:31.255Z,56.84
2023-10-10T05:13:36.770Z,56.8
2023-10-10T05:14:42.490Z,56.78
2023-10-10T05:15:48.188Z,56.77
2023-10-10T05:16:53.717Z,56.75
2023-10-10T05:17:59.588Z,56.75
2023-10-10T05:19:05.233Z,56.78
2023-10-10T05:20:10.874Z,56.75
2023-10-10T05:21:16.407Z,56.75
2023-10-10T05:22:21.943Z,56.77
2023-10-10T05:23:27.600Z,56.77
2023-10-10T05:24:33.146Z,56.77
2023-10-10T05:25:38.692Z,56.71
2023-10-10T05:26:44.494Z,56.78
2023-10-10T05:27:50.021Z,56.82
2023-10-10T05:28:55.593Z,56.82
2023-10-10T05:30:02.223Z,56.74
2023-10-10T05:31:08.034Z,56.84
2023-10-10T05:32:13.680Z,56.77
2023-10-10T05:33:19.375Z,56.75
2023-10-10T05:34:24.932Z,56.72
2023-10-10T05:35:30.699Z,56.69
2023-10-10T05:36:36.332Z,56.7
2023-10-10T05:37:41.827Z,56.59
2023-10-10T05:38:47.528Z,56.49
2023-10-10T05:39:53.079Z,56.49
2023-10-10T05:41:01.533Z,56.45
2023-10-10T05:42:07.217Z,56.39
2023-10-10T05:43:12.737Z,56.34
2023-10-10T05:44:19.334Z,56.37
2023-10-10T05:45:25.096Z,56.34
2023-10-10T05:46:30.686Z,56.32
2023-10-10T05:47:36.508Z,56.32
2023-10-10T05:48:42.033Z,56.3
2023-10-10T05:49:47.591Z,56.27
2023-10-10T05:50:53.251Z,56.33
2023-10-10T05:51:58.792Z,56.31
2023-10-10T05:53:04.593Z,56.24
2023-10-10T05:54:10.152Z,56.23
2023-10-10T05:55:16.999Z,56.31
2023-10-10T05:56:22.791Z,56.33
2023-10-10T05:57:29.337Z,56.34
2023-10-10T05:58:34.903Z,56.34
2023-10-10T05:59:40.606Z,56.35
2023-10-10T06:00:46.172Z,56.3
2023-10-10T06:01:51.968Z,56.35
2023-10-10T06:02:57.739Z,56.37
2023-10-10T06:04:03.547Z,56.39
2023-10-10T06:05:09.361Z,56.35
2023-10-10T06:06:15.258Z,56.31
2023-10-10T06:07:20.921Z,56.31
2023-10-10T06:08:26.559Z,56.37
2023-10-10T06:09:32.111Z,56.36
2023-10-10T06:10:37.688Z,56.38
2023-10-10T06:11:43.400Z,56.37
2023-10-10T06:12:48.976Z,56.39
2023-10-10T06:13:54.505Z,56.42
2023-10-10T06:15:00.009Z,56.38
2023-10-10T06:16:05.656Z,56.42
2023-10-10T06:17:11.584Z,56.43
2023-10-10T06:18:17.852Z,56.37
2023-10-10T06:19:24.030Z,56.37
2023-10-10T06:20:29.907Z,56.39
2023-10-10T06:21:35.468Z,56.39
2023-10-10T06:22:41.120Z,56.37
2023-10-10T06:23:47.340Z,56.38
2023-10-10T06:24:52.940Z,56.33
2023-10-10T06:25:58.499Z,56.37
2023-10-10T06:27:04.054Z,56.34
2023-10-10T06:28:09.593Z,56.41
2023-10-10T06:29:15.266Z,56.42
2023-10-10T06:30:20.895Z,56.32
2023-10-10T06:31:26.726Z,56.31
2023-10-10T06:32:32.558Z,56.38
2023-10-10T06:33:38.310Z,56.4
2023-10-10T06:34:43.897Z,56.43
2023-10-10T06:35:49.513Z,56.35
2023-10-10T06:36:55.045Z,56.36
2023-10-10T06:38:00.583Z,56.35
2023-10-10T06:39:06.671Z,56.42
2023-10-10T06:40:12.298Z,56.35
2023-10-10T06:41:17.982Z,56.32
2023-10-10T06:42:23.555Z,56.23
2023-10-10T06:43:29.086Z,56.16
2023-10-10T06:44:35.392Z,56.17
2023-10-10T06:45:41.052Z,56.15
2023-10-10T06:46:46.593Z,56.14
2023-10-10T06:47:52.397Z,56.11
2023-10-10T06:48:58.008Z,56.06
2023-10-10T06:50:06.207Z,56.05
2023-10-10T06:51:11.716Z,56.05
2023-10-10T06:52:17.250Z,56.05
2023-10-10T06:53:22.975Z,56.04
2023-10-10T06:54:29.041Z,56.03
2023-10-10T06:55:34.827Z,55.94
2023-10-10T06:56:40.470Z,55.92
2023-10-10T06:57:48.346Z,55.9
2023-10-10T06:58:53.906Z,55.81
2023-10-10T06:59:59.485Z,55.78
2023-10-10T07:01:05.157Z,55.82
2023-10-10T07:02:10.754Z,55.84
2023-10-10T07:03:16.611Z,55.86
2023-10-10T07:04:22.352Z,55.87
2023-10-10T07:05:28.240Z,55.88
2023-10-10T07:06:33.882Z,55.91
2023-10-10T07:07:39.387Z,55.94
2023-10-10T07:08:45.181Z,55.97
2023-10-10T07:09:50.764Z,56.01
2023-10-10T07:10:56.321Z,56
2023-10-10T07:12:01.880Z,56.02
2023-10-10T07:13:07.504Z,56.07
2023-10-10T07:14:13.652Z,56.1
2023-10-10T07:15:19.488Z,56.11
2023-10-10T07:16:25.316Z,56.12
2023-10-10T07:17:31.265Z,56.11
2023-10-10T07:18:37.008Z,56.09
2023-10-10T07:19:42.601Z,56.07
2023-10-10T07:20:48.451Z,56.07
2023-10-10T07:21:54.266Z,56.07
2023-10-10T07:22:59.809Z,56.06
2023-10-10T07:24:05.332Z,56.07
2023-10-10T07:25:11.246Z,56.08
2023-10-10T07:26:16.952Z,56.06
2023-10-10T07:27:22.513Z,56.09
2023-10-10T07:28:28.158Z,56.07
2023-10-10T07:29:33.859Z,56.06
2023-10-10T07:30:39.449Z,56.07
2023-10-10T07:31:45.024Z,56.09
2023-10-10T07:32:50.864Z,56.07
2023-10-10T07:33:56.513Z,56.08
2023-10-10T07:35:02.136Z,56.09
2023-10-10T07:36:07.671Z,56.13
2023-10-10T07:37:13.229Z,56.11
2023-10-10T07:38:18.869Z,56.11
2023-10-10T07:39:26.783Z,56.14
2023-10-10T07:40:32.527Z,56.13
2023-10-10T07:41:38.264Z,56.16
2023-10-10T07:42:43.846Z,56.17
2023-10-10T07:43:49.351Z,56.15
2023-10-10T07:44:54.975Z,56.17
2023-10-10T07:46:00.513Z,56.2
2023-10-10T07:47:06.200Z,56.25
2023-10-10T07:48:12.326Z,56.28
2023-10-10T07:49:20.262Z,56.24
2023-10-10T07:50:25.939Z,56.23
2023-10-10T07:51:31.652Z,56.13
2023-10-10T07:52:37.194Z,56.12
2023-10-10T07:53:42.780Z,56.1
2023-10-10T07:54:48.340Z,56.08
2023-10-10T07:55:53.893Z,56.09
2023-10-10T07:57:02.376Z,56.07
2023-10-10T07:58:08.298Z,56.03
2023-10-10T07:59:13.902Z,56
2023-10-10T08:00:19.483Z,56
2023-10-10T08:01:25.293Z,55.97
2023-10-10T08:02:31.264Z,55.94
2023-10-10T08:03:37.247Z,55.91
2023-10-10T08:04:42.926Z,55.87
2023-10-10T08:05:48.571Z,55.83
2023-10-10T08:06:54.113Z,55.82
2023-10-10T08:07:59.879Z,55.82
2023-10-10T08:09:05.385Z,55.77
2023-10-10T08:10:10.892Z,55.63
2023-10-10T08:11:16.622Z,55.69
2023-10-10T08:12:22.236Z,55.59
2023-10-10T08:13:27.749Z,55.66
2023-10-10T08:14:33.488Z,55.65
2023-10-10T08:15:38.994Z,55.6
2023-10-10T08:16:44.850Z,55.6
2023-10-10T08:17:50.739Z,55.6
2023-10-10T08:18:56.485Z,55.57
2023-10-10T08:20:02.023Z,55.53
2023-10-10T08:21:07.565Z,55.51
2023-10-10T08:22:13.091Z,55.48
2023-10-10T08:23:18.727Z,55.43
2023-10-10T08:24:24.637Z,55.49
2023-10-10T08:25:30.149Z,55.44
2023-10-10T08:26:35.831Z,55.43
2023-10-10T08:27:41.425Z,55.44
2023-10-10T08:28:48.577Z,55.49
2023-10-10T08:29:54.416Z,55.4
2023-10-10T08:31:00.089Z,55.41
2023-10-10T08:32:05.767Z,55.39
2023-10-10T08:33:11.659Z,55.38
2023-10-10T08:34:17.920Z,55.35
2023-10-10T08:35:23.604Z,55.4
2023-10-10T08:36:29.220Z,55.39
2023-10-10T08:37:34.954Z,55.37
2023-10-10T08:38:40.607Z,55.29
2023-10-10T08:39:46.147Z,55.28
2023-10-10T08:40:51.674Z,55.27
2023-10-10T08:41:57.258Z,55.33
2023-10-10T08:43:02.848Z,55.35
2023-10-10T08:44:08.432Z,55.32
2023-10-10T08:45:13.949Z,55.35
2023-10-10T08:46:19.543Z,55.32
2023-10-10T08:47:25.256Z,55.3
2023-10-10T08:48:31.166Z,55.34
2023-10-10T08:49:36.920Z,55.29
2023-10-10T08:50:42.676Z,55.32
2023-10-10T08:51:48.329Z,55.27
2023-10-10T08:52:53.850Z,55.31
2023-10-10T08:53:59.641Z,55.29
2023-10-10T08:55:05.206Z,55.31
2023-10-10T08:56:11.073Z,55.28
2023-10-10T08:57:16.638Z,55.29
2023-10-10T08:58:22.238Z,55.31
2023-10-10T08:59:27.826Z,55.32
2023-10-10T09:00:33.621Z,55.29
2023-10-10T09:01:39.560Z,55.29
2023-10-10T09:02:45.562Z,55.27
2023-10-10T09:03:52.470Z,55.29
2023-10-10T09:04:58.099Z,55.23
2023-10-10T09:06:03.631Z,55.21
2023-10-10T09:07:09.180Z,55.2
2023-10-10T09:08:14.826Z,55.21
2023-10-10T09:09:20.399Z,55.23
2023-10-10T09:10:25.888Z,55.21
2023-10-10T09:11:35.264Z,55.21
2023-10-10T09:12:40.967Z,55.19
2023-10-10T09:13:46.518Z,55.23
2023-10-10T09:14:52.282Z,55.2
2023-10-10T09:15:57.917Z,55.18
2023-10-10T09:17:03.600Z,55.2
2023-10-10T09:18:09.443Z,55.18
2023-10-10T09:19:15.958Z,55.15
2023-10-10T09:20:21.686Z,55.21
2023-10-10T09:21:27.222Z,55.2
2023-10-10T09:22:32.818Z,55.2
2023-10-10T09:23:38.442Z,55.22
2023-10-10T09:24:44.023Z,55.19
2023-10-10T09:25:54.857Z,55.18
2023-10-10T09:27:00.388Z,55.17
2023-10-10T09:28:05.916Z,55.13
2023-10-10T09:29:11.613Z,55.15
2023-10-10T09:30:17.176Z,55.07
2023-10-10T09:31:22.846Z,54.77
2023-10-10T09:32:28.698Z,54.42
2023-10-10T09:33:34.613Z,54.02
2023-10-10T09:34:40.165Z,53.93
2023-10-10T09:35:45.796Z,54.07
2023-10-10T09:36:52.638Z,54.15
2023-10-10T09:38:01.650Z,54.36
2023-10-10T09:39:07.183Z,54.42
2023-10-10T09:40:12.727Z,54.49
2023-10-10T09:41:18.373Z,54.5
2023-10-10T09:42:23.909Z,54.49
2023-10-10T09:43:29.440Z,54.54
2023-10-10T09:44:35.093Z,54.56
2023-10-10T09:45:40.676Z,54.57
2023-10-10T09:46:46.287Z,54.59
2023-10-10T09:47:52.277Z,54.52
2023-10-10T09:48:58.259Z,54.49
2023-10-10T09:50:03.845Z,54.44
2023-10-10T09:51:09.469Z,54.38
2023-10-10T09:52:15.158Z,54.33
2023-10-10T09:53:21.334Z,54.3
2023-10-10T09:54:27.126Z,54.18
2023-10-10T09:55:33.002Z,54.13
2023-10-10T09:56:38.728Z,54.19
2023-10-10T09:57:44.401Z,54.24
2023-10-10T09:58:49.971Z,54.23
2023-10-10T09:59:55.567Z,54.35
2023-10-10T10:01:01.165Z,54.42
2023-10-10T10:02:06.996Z,54.44
2023-10-10T10:03:12.837Z,54.44
2023-10-10T10:04:18.748Z,54.5
2023-10-10T10:05:24.402Z,54.43
2023-10-10T10:06:29.920Z,54.46
2023-10-10T10:07:35.469Z,54.42
2023-10-10T10:08:42.387Z,54.42
2023-10-10T10:09:49.280Z,54.47
2023-10-10T10:10:54.832Z,54.51
2023-10-10T10:12:00.347Z,54.5
2023-10-10T10:13:05.851Z,54.43
2023-10-10T10:14:22.683Z,54.47
2023-10-10T10:15:28.418Z,54.47
2023-10-10T10:16:34.097Z,54.49
2023-10-10T10:17:39.896Z,54.47
2023-10-10T10:18:45.976Z,54.52
2023-10-10T10:19:52.783Z,54.55
2023-10-10T10:20:59.551Z,54.59
2023-10-10T10:22:05.134Z,54.62
2023-10-10T10:23:10.637Z,54.65
2023-10-10T10:24:16.754Z,54.71
2023-10-10T10:25:22.630Z,54.75
2023-10-10T10:26:28.209Z,54.8
2023-10-10T10:27:33.745Z,54.85
2023-10-10T10:28:39.901Z,54.88
2023-10-10T10:29:47.081Z,54.99
2023-10-10T10:30:53.731Z,55.07
2023-10-10T10:31:59.393Z,55.15
2023-10-10T10:33:05.194Z,55.25
2023-10-10T10:34:10.928Z,55.37
2023-10-10T10:35:16.597Z,55.41
2023-10-10T10:36:22.308Z,55.47
2023-10-10T10:37:27.871Z,55.52
2023-10-10T10:38:33.496Z,55.58
2023-10-10T10:39:39.108Z,55.61
2023-10-10T10:40:44.849Z,55.65
2023-10-10T10:41:50.534Z,55.7
2023-10-10T10:42:56.226Z,55.74
2023-10-10T10:44:01.841Z,55.8
2023-10-10T10:45:07.470Z,55.79
2023-10-10T10:46:13.399Z,55.8
2023-10-10T10:47:20.838Z,55.85
2023-10-10T10:48:26.610Z,55.85
2023-10-10T10:49:32.255Z,55.85
2023-10-10T10:50:37.949Z,55.86
2023-10-10T10:51:43.488Z,55.88
2023-10-10T10:52:49.287Z,55.88
2023-10-10T10:53:55.173Z,55.88
2023-10-10T10:55:00.772Z,55.86
2023-10-10T10:56:06.333Z,55.85
2023-10-10T10:57:12.147Z,55.84
2023-10-10T10:58:17.695Z,55.82
2023-10-10T10:59:24.036Z,55.81
2023-10-10T11:00:29.933Z,55.81
2023-10-10T11:01:35.613Z,55.77
2023-10-10T11:02:41.495Z,55.76
2023-10-10T11:03:47.262Z,55.75
2023-10-10T11:04:53.359Z,55.74
2023-10-10T11:05:59.087Z,55.73
2023-10-10T11:07:04.644Z,55.71
2023-10-10T11:08:10.200Z,55.67
2023-10-10T11:09:15.877Z,55.64
2023-10-10T11:10:21.484Z,55.65
2023-10-10T11:11:27.270Z,55.67
2023-10-10T11:12:35.028Z,55.66
2023-10-10T11:13:40.564Z,55.68
2023-10-10T11:14:46.514Z,55.67
2023-10-10T11:15:52.226Z,55.62
2023-10-10T11:16:57.856Z,55.63
2023-10-10T11:18:03.775Z,55.58
2023-10-10T11:19:09.353Z,55.6
2023-10-10T11:20:15.032Z,55.58
2023-10-10T11:21:20.693Z,55.55
2023-10-10T11:22:26.217Z,55.53
2023-10-10T11:23:31.796Z,55.49
2023-10-10T11:24:37.561Z,55.47
2023-10-10T11:25:43.090Z,55.47
2023-10-10T11:26:48.737Z,55.45
2023-10-10T11:27:54.640Z,55.47
2023-10-10T11:29:00.203Z,55.48
2023-10-10T11:30:06.005Z,55.47
2023-10-10T11:31:11.956Z,55.44
2023-10-10T11:32:17.911Z,55.45
2023-10-10T11:33:23.789Z,55.47
2023-10-10T11:34:29.756Z,55.45
2023-10-10T11:35:35.385Z,55.47
2023-10-10T11:36:41.276Z,55.45
2023-10-10T11:37:46.836Z,55.43
2023-10-10T11:38:52.456Z,55.44
2023-10-10T11:39:58.250Z,55.46
2023-10-10T11:41:03.813Z,55.5
2023-10-10T11:42:09.425Z,55.52
2023-10-10T11:43:14.966Z,55.56
2023-10-10T11:44:20.742Z,55.56
2023-10-10T11:45:26.612Z,55.58
2023-10-10T11:46:32.389Z,55.55
2023-10-10T11:47:38.204Z,55.52
2023-10-10T11:48:43.828Z,55.5
2023-10-10T11:49:49.384Z,55.52
2023-10-10T11:50:55.282Z,55.52
2023-10-10T11:52:00.798Z,55.5
2023-10-10T11:53:06.342Z,55.52
2023-10-10T11:54:11.932Z,55.53
2023-10-10T11:55:17.410Z,55.55
2023-10-10T11:56:23.069Z,55.58
2023-10-10T11:57:28.635Z,55.57
2023-10-10T11:58:34.147Z,55.6
2023-10-10T11:59:39.800Z,55.61
2023-10-10T12:00:45.437Z,55.64
2023-10-10T12:01:51.359Z,55.62
2023-10-10T12:02:57.231Z,55.64
2023-10-10T12:04:03.022Z,55.64
2023-10-10T12:05:08.566Z,55.64
2023-10-10T12:06:14.731Z,55.63
2023-10-10T12:07:20.292Z,55.65
2023-10-10T12:08:26.290Z,55.63
2023-10-10T12:09:32.366Z,55.6
2023-10-10T12:10:37.929Z,55.59
2023-10-10T12:11:43.644Z,55.61
2023-10-10T12:12:49.195Z,55.62
2023-10-10T12:13:55.721Z,55.61
2023-10-10T12:15:01.446Z,55.61
2023-10-10T12:16:07.218Z,55.6
2023-10-10T12:17:12.823Z,55.59
2023-10-10T12:18:18.630Z,55.61
2023-10-10T12:19:24.205Z,55.62
2023-10-10T12:20:29.847Z,55.61
2023-10-10T12:21:35.385Z,55.61
2023-10-10T12:22:40.896Z,55.62
2023-10-10T12:23:46.486Z,55.63
2023-10-10T12:24:52.090Z,55.62
2023-10-10T12:25:57.635Z,55.59
2023-10-10T12:27:03.367Z,55.59
2023-10-10T12:28:08.915Z,55.59
2023-10-10T12:29:14.512Z,55.57
2023-10-10T12:30:20.070Z,55.55
2023-10-10T12:31:26.271Z,55.55
2023-10-10T12:32:32.328Z,55.57
2023-10-10T12:33:38.128Z,55.59
2023-10-10T12:34:43.639Z,55.59
2023-10-10T12:35:49.339Z,55.55
2023-10-10T12:36:54.903Z,55.55
2023-10-10T12:38:00.388Z,55.53
2023-10-10T12:39:06.138Z,55.5
2023-10-10T12:40:12.113Z,55.51
2023-10-10T12:41:17.705Z,55.51
2023-10-10T12:42:23.217Z,55.49
2023-10-10T12:43:28.783Z,55.51
2023-10-10T12:44:34.450Z,55.5
2023-10-10T12:45:40.163Z,55.51
2023-10-10T12:46:45.751Z,55.5
2023-10-10T12:47:51.661Z,55.53
2023-10-10T12:48:57.558Z,55.51
2023-10-10T12:50:03.129Z,55.52
2023-10-10T12:51:08.812Z,55.49
2023-10-10T12:52:14.394Z,55.5
2023-10-10T12:53:20.382Z,55.48
2023-10-10T12:54:25.967Z,55.51
2023-10-10T12:55:31.534Z,55.52
2023-10-10T12:56:37.128Z,55.52
2023-10-10T12:57:42.674Z,55.49
2023-10-10T12:58:48.295Z,55.49
2023-10-10T12:59:53.958Z,55.51
2023-10-10T13:00:59.686Z,55.5
2023-10-10T13:02:05.322Z,55.5
2023-10-10T13:03:11.620Z,55.48
2023-10-10T13:04:17.941Z,55.5
2023-10-10T13:05:23.667Z,55.5
2023-10-10T13:06:29.276Z,55.49
2023-10-10T13:07:34.832Z,55.49
2023-10-10T13:08:40.610Z,55.5
2023-10-10T13:09:46.223Z,55.48
2023-10-10T13:10:51.739Z,55.49
2023-10-10T13:11:57.570Z,55.5
2023-10-10T13:13:03.381Z,55.48
2023-10-10T13:14:08.940Z,55.48
2023-10-10T13:15:14.607Z,55.47
2023-10-10T13:16:20.279Z,55.49
2023-10-10T13:17:26.112Z,55.5
2023-10-10T13:18:33.015Z,55.47
2023-10-10T13:19:38.595Z,55.49
2023-10-10T13:20:44.375Z,55.48
2023-10-10T13:21:50.001Z,55.48
2023-10-10T13:22:55.761Z,55.46
2023-10-10T13:24:02.553Z,55.48
2023-10-10T13:25:08.127Z,55.48
2023-10-10T13:26:13.699Z,55.49
2023-10-10T13:27:19.472Z,55.47
2023-10-10T13:28:25.376Z,55.47
2023-10-10T13:29:31.088Z,55.43
2023-10-10T13:30:36.618Z,55.42
2023-10-10T13:31:42.603Z,55.39
2023-10-10T13:32:48.414Z,55.37
2023-10-10T13:33:54.078Z,55.35
2023-10-10T13:34:59.728Z,55.35
2023-10-10T13:36:05.474Z,55.35
2023-10-10T13:37:11.091Z,55.41
2023-10-10T13:38:16.632Z,55.42
2023-10-10T13:39:22.217Z,55.38
2023-10-10T13:40:27.792Z,55.41
2023-10-10T13:41:33.449Z,55.41
2023-10-10T13:42:39.024Z,55.43
2023-10-10T13:43:44.597Z,55.42
2023-10-10T13:44:50.305Z,55.44
2023-10-10T13:45:55.946Z,55.42
2023-10-10T13:47:01.516Z,55.45
2023-10-10T13:48:09.636Z,55.43
2023-10-10T13:49:15.227Z,55.44
2023-10-10T13:50:20.896Z,55.46
2023-10-10T13:51:26.440Z,55.47
2023-10-10T13:52:31.960Z,55.47
2023-10-10T13:53:37.631Z,55.47
2023-10-10T13:54:43.307Z,55.51
2023-10-10T13:55:48.834Z,55.48
2023-10-10T13:56:54.583Z,55.5
2023-10-10T13:58:00.112Z,55.53
2023-10-10T13:59:05.746Z,55.53
2023-10-10T14:00:11.390Z,55.51
2023-10-10T14:01:17.410Z,55.5
2023-10-10T14:02:23.719Z,55.52
2023-10-10T14:03:29.711Z,55.55
2023-10-10T14:04:35.732Z,55.57
2023-10-10T14:05:41.630Z,55.56
2023-10-10T14:06:47.479Z,55.55
2023-10-10T14:07:53.125Z,55.57
2023-10-10T14:08:58.823Z,55.59
2023-10-10T14:10:06.490Z,55.61